SWR1DE LSZH-LFPG
Flight info
| Callsign | SWR1DE |
|---|---|
| Flight time | 1h 0m |
| Altitude | 31000 |
| Route | VEBIT T10 LUMEL T14 MOROK DCT PENDU DCT JAVVU DCT GIVRI DCT TINIL |
| Aircraft | A320/M-SDE3FGHIRWY/LB1 |
Departure
| Time | 2026-05-07 10:06 |
|---|---|
| Airport | Zürich Airport (LSZH) |
Arrival
| Time | 2026-05-07 11:07 |
|---|---|
| Airport | Charles de Gaulle International Airport (LFPG) |
| Time | Latitude | Longitude | Altitude | Speed | Heading |
|---|---|---|---|---|---|
| 2026-05-07 09:38 | 47.45411 | 8.55946 | 1407 ft | 0 kts | 186° |
| 2026-05-07 09:56 | 47.45428 | 8.55949 | 1413 ft | 4 kts | 192° |
| 2026-05-07 09:57 | 47.45438 | 8.55952 | 1409 ft | 4 kts | 190° |
| 2026-05-07 09:57 | 47.45452 | 8.55955 | 1412 ft | 1 kts | 181° |
| 2026-05-07 09:57 | 47.45456 | 8.55955 | 1412 ft | 2 kts | 181° |
| 2026-05-07 09:58 | 47.45473 | 8.55956 | 1411 ft | 2 kts | 186° |
| 2026-05-07 09:58 | 47.45488 | 8.55950 | 1408 ft | 2 kts | 124° |
| 2026-05-07 09:58 | 47.45496 | 8.55930 | 1408 ft | 0 kts | 96° |
| 2026-05-07 10:00 | 47.45496 | 8.55933 | 1407 ft | 1 kts | 96° |
| 2026-05-07 10:00 | 47.45495 | 8.55945 | 1407 ft | 2 kts | 96° |
| 2026-05-07 10:01 | 47.45493 | 8.55968 | 1414 ft | 4 kts | 96° |
| 2026-05-07 10:01 | 47.45486 | 8.56057 | 1411 ft | 13 kts | 96° |
| 2026-05-07 10:01 | 47.45482 | 8.56211 | 1408 ft | 16 kts | 73° |
| 2026-05-07 10:01 | 47.45550 | 8.56344 | 1413 ft | 15 kts | 51° |
| 2026-05-07 10:02 | 47.45594 | 8.56464 | 1417 ft | 12 kts | 85° |
| 2026-05-07 10:02 | 47.45589 | 8.56565 | 1420 ft | 8 kts | 95° |
| 2026-05-07 10:02 | 47.45584 | 8.56638 | 1417 ft | 8 kts | 96° |
| 2026-05-07 10:02 | 47.45576 | 8.56749 | 1419 ft | 13 kts | 96° |
| 2026-05-07 10:03 | 47.45565 | 8.56895 | 1420 ft | 13 kts | 96° |
| 2026-05-07 10:03 | 47.45586 | 8.57002 | 1422 ft | 9 kts | 37° |
| 2026-05-07 10:03 | 47.45614 | 8.57014 | 1424 ft | 1 kts | 5° |
| 2026-05-07 10:03 | 47.45616 | 8.57015 | 1424 ft | 1 kts | 4° |
| 2026-05-07 10:04 | 47.45629 | 8.57016 | 1425 ft | 3 kts | 2° |
| 2026-05-07 10:04 | 47.45652 | 8.57001 | 1425 ft | 6 kts | 321° |
| 2026-05-07 10:04 | 47.45669 | 8.56930 | 1424 ft | 0 kts | 274° |
| 2026-05-07 10:05 | 47.45670 | 8.56904 | 1423 ft | 19 kts | 275° |
| 2026-05-07 10:06 | 47.45703 | 8.56320 | 1415 ft | 92 kts | 276° |
| 2026-05-07 10:06 | 47.45795 | 8.55065 | 1400 ft | 147 kts | 276° |
| 2026-05-07 10:06 | 47.45909 | 8.53407 | 1574 ft | 171 kts | 278° |
| 2026-05-07 10:06 | 47.46095 | 8.51772 | 2433 ft | 158 kts | 277° |
| 2026-05-07 10:07 | 47.46227 | 8.50032 | 2727 ft | 183 kts | 275° |
| 2026-05-07 10:07 | 47.46228 | 8.48049 | 3016 ft | 205 kts | 252° |
| 2026-05-07 10:07 | 47.45372 | 8.46257 | 3333 ft | 230 kts | 223° |
| 2026-05-07 10:07 | 47.44105 | 8.44631 | 3753 ft | 251 kts | 224° |
| 2026-05-07 10:08 | 47.42896 | 8.42725 | 4529 ft | 257 kts | 232° |
| 2026-05-07 10:08 | 47.41799 | 8.40621 | 5457 ft | 259 kts | 235° |
| 2026-05-07 10:08 | 47.40745 | 8.38454 | 6426 ft | 260 kts | 236° |
| 2026-05-07 10:08 | 47.40047 | 8.37002 | 7002 ft | 263 kts | 236° |
| 2026-05-07 10:09 | 47.38652 | 8.34014 | 8135 ft | 266 kts | 243° |
| 2026-05-07 10:09 | 47.37867 | 8.31527 | 8988 ft | 269 kts | 244° |
| 2026-05-07 10:09 | 47.37318 | 8.29877 | 9565 ft | 272 kts | 243° |
| 2026-05-07 10:09 | 47.36444 | 8.27385 | 10334 ft | 277 kts | 242° |
| 2026-05-07 10:10 | 47.35505 | 8.24766 | 10560 ft | 300 kts | 242° |
| 2026-05-07 10:10 | 47.34156 | 8.21027 | 11074 ft | 319 kts | 242° |
| 2026-05-07 10:10 | 47.33445 | 8.19058 | 11530 ft | 322 kts | 242° |
| 2026-05-07 10:10 | 47.32387 | 8.16121 | 12230 ft | 327 kts | 243° |
| 2026-05-07 10:11 | 47.30974 | 8.12172 | 13166 ft | 331 kts | 243° |
| 2026-05-07 10:11 | 47.30261 | 8.10167 | 13616 ft | 334 kts | 243° |
| 2026-05-07 10:11 | 47.29179 | 8.07121 | 14238 ft | 338 kts | 243° |
| 2026-05-07 10:11 | 47.28122 | 8.04004 | 14840 ft | 341 kts | 248° |
| 2026-05-07 10:12 | 47.27446 | 8.00641 | 15428 ft | 345 kts | 260° |
| 2026-05-07 10:12 | 47.27267 | 7.97113 | 16017 ft | 348 kts | 272° |
| 2026-05-07 10:12 | 47.27548 | 7.93561 | 16612 ft | 351 kts | 278° |
| 2026-05-07 10:12 | 47.27901 | 7.89982 | 17244 ft | 354 kts | 278° |
| 2026-05-07 10:13 | 47.28256 | 7.86276 | 17899 ft | 358 kts | 278° |
| 2026-05-07 10:13 | 47.28594 | 7.82731 | 18472 ft | 361 kts | 278° |
| 2026-05-07 10:13 | 47.28942 | 7.79061 | 18982 ft | 363 kts | 278° |
| 2026-05-07 10:13 | 47.29290 | 7.75361 | 19511 ft | 366 kts | 278° |
| 2026-05-07 10:14 | 47.29639 | 7.71637 | 20035 ft | 369 kts | 278° |
| 2026-05-07 10:14 | 47.29989 | 7.67876 | 20563 ft | 371 kts | 278° |
| 2026-05-07 10:14 | 47.30350 | 7.64097 | 21095 ft | 374 kts | 280° |
| 2026-05-07 10:14 | 47.30996 | 7.60380 | 21617 ft | 377 kts | 288° |
| 2026-05-07 10:15 | 47.31801 | 7.56696 | 22132 ft | 379 kts | 288° |
| 2026-05-07 10:15 | 47.32614 | 7.52981 | 22654 ft | 382 kts | 288° |
| 2026-05-07 10:15 | 47.33430 | 7.49240 | 23182 ft | 385 kts | 287° |
| 2026-05-07 10:15 | 47.34251 | 7.45466 | 23662 ft | 387 kts | 287° |
| 2026-05-07 10:16 | 47.35076 | 7.41668 | 24076 ft | 390 kts | 287° |
| 2026-05-07 10:16 | 47.35903 | 7.37850 | 24468 ft | 393 kts | 288° |
| 2026-05-07 10:16 | 47.36734 | 7.34003 | 24845 ft | 396 kts | 288° |
| 2026-05-07 10:16 | 47.37570 | 7.30122 | 25239 ft | 398 kts | 287° |
| 2026-05-07 10:17 | 47.38409 | 7.26213 | 25587 ft | 401 kts | 288° |
| 2026-05-07 10:17 | 47.39253 | 7.22283 | 25949 ft | 403 kts | 288° |
| 2026-05-07 10:17 | 47.40082 | 7.18321 | 26306 ft | 405 kts | 284° |
| 2026-05-07 10:17 | 47.40578 | 7.14220 | 26686 ft | 407 kts | 275° |
| 2026-05-07 10:18 | 47.40626 | 7.10081 | 27033 ft | 410 kts | 269° |
| 2026-05-07 10:18 | 47.40532 | 7.05874 | 27378 ft | 412 kts | 268° |
| 2026-05-07 10:18 | 47.40434 | 7.01633 | 27699 ft | 415 kts | 268° |
| 2026-05-07 10:18 | 47.40335 | 6.97358 | 27995 ft | 417 kts | 268° |
| 2026-05-07 10:19 | 47.40240 | 6.93078 | 28336 ft | 419 kts | 269° |
| 2026-05-07 10:19 | 47.40147 | 6.88765 | 28681 ft | 421 kts | 269° |
| 2026-05-07 10:19 | 47.40059 | 6.84444 | 28989 ft | 423 kts | 269° |
| 2026-05-07 10:19 | 47.39974 | 6.80093 | 29254 ft | 426 kts | 269° |
| 2026-05-07 10:20 | 47.39885 | 6.75709 | 29545 ft | 428 kts | 269° |
| 2026-05-07 10:20 | 47.39790 | 6.71303 | 29859 ft | 429 kts | 269° |
| 2026-05-07 10:20 | 47.39693 | 6.66898 | 30115 ft | 432 kts | 268° |
| 2026-05-07 10:20 | 47.39534 | 6.62460 | 30359 ft | 433 kts | 265° |
| 2026-05-07 10:21 | 47.39260 | 6.58030 | 30637 ft | 433 kts | 264° |
| 2026-05-07 10:21 | 47.38910 | 6.53608 | 30884 ft | 434 kts | 263° |
| 2026-05-07 10:21 | 47.38524 | 6.49187 | 31032 ft | 433 kts | 263° |
| 2026-05-07 10:21 | 47.38144 | 6.44847 | 31063 ft | 418 kts | 263° |
| 2026-05-07 10:22 | 47.37793 | 6.40683 | 31065 ft | 411 kts | 263° |
| 2026-05-07 10:22 | 47.37141 | 6.32350 | 31063 ft | 408 kts | 264° |
| 2026-05-07 10:23 | 47.36516 | 6.24028 | 31060 ft | 407 kts | 264° |
| 2026-05-07 10:23 | 47.35877 | 6.15749 | 31060 ft | 405 kts | 263° |
| 2026-05-07 10:24 | 47.35229 | 6.07511 | 31054 ft | 404 kts | 263° |
| 2026-05-07 10:24 | 47.34571 | 5.99276 | 31051 ft | 404 kts | 263° |
| 2026-05-07 10:25 | 47.33896 | 5.91105 | 31048 ft | 404 kts | 263° |
| 2026-05-07 10:25 | 47.33198 | 5.82828 | 31047 ft | 404 kts | 263° |
| 2026-05-07 10:26 | 47.32527 | 5.74667 | 31042 ft | 404 kts | 263° |
| 2026-05-07 10:26 | 47.31862 | 5.66444 | 31040 ft | 404 kts | 263° |
| 2026-05-07 10:27 | 47.31197 | 5.58223 | 31040 ft | 404 kts | 263° |
| 2026-05-07 10:27 | 47.30522 | 5.49994 | 31044 ft | 404 kts | 263° |
| 2026-05-07 10:28 | 47.30188 | 5.41768 | 31047 ft | 403 kts | 277° |
| 2026-05-07 10:28 | 47.30832 | 5.37793 | 31044 ft | 403 kts | 291° |
| 2026-05-07 10:28 | 47.32115 | 5.34093 | 31045 ft | 403 kts | 304° |
| 2026-05-07 10:28 | 47.33934 | 5.30965 | 31042 ft | 404 kts | 317° |
| 2026-05-07 10:29 | 47.36204 | 5.28514 | 31041 ft | 405 kts | 329° |
| 2026-05-07 10:29 | 47.41134 | 5.24477 | 31038 ft | 406 kts | 329° |
| 2026-05-07 10:30 | 47.48506 | 5.18423 | 31046 ft | 406 kts | 329° |
| 2026-05-07 10:30 | 47.53437 | 5.14356 | 31038 ft | 406 kts | 329° |
| 2026-05-07 10:31 | 47.58363 | 5.10246 | 30947 ft | 404 kts | 326° |
| 2026-05-07 10:31 | 47.60578 | 5.07789 | 30692 ft | 394 kts | 319° |
| 2026-05-07 10:31 | 47.62646 | 5.05180 | 30440 ft | 387 kts | 319° |
| 2026-05-07 10:32 | 47.64684 | 5.02610 | 30010 ft | 383 kts | 319° |
| 2026-05-07 10:32 | 47.66705 | 5.00073 | 29538 ft | 378 kts | 319° |
| 2026-05-07 10:32 | 47.68706 | 4.97567 | 29094 ft | 374 kts | 319° |
| 2026-05-07 10:32 | 47.70679 | 4.95090 | 28675 ft | 370 kts | 319° |
| 2026-05-07 10:33 | 47.72634 | 4.92632 | 28258 ft | 366 kts | 319° |
| 2026-05-07 10:33 | 47.74565 | 4.90197 | 27855 ft | 363 kts | 319° |
| 2026-05-07 10:33 | 47.76501 | 4.87747 | 27533 ft | 368 kts | 319° |
| 2026-05-07 10:33 | 47.78447 | 4.85280 | 27189 ft | 368 kts | 319° |
| 2026-05-07 10:34 | 47.80394 | 4.82813 | 26850 ft | 367 kts | 319° |
| 2026-05-07 10:34 | 47.82335 | 4.80344 | 26509 ft | 366 kts | 318° |
| 2026-05-07 10:34 | 47.84264 | 4.77889 | 26164 ft | 364 kts | 318° |
| 2026-05-07 10:34 | 47.86163 | 4.75473 | 25830 ft | 363 kts | 318° |
| 2026-05-07 10:35 | 47.88103 | 4.72999 | 25496 ft | 361 kts | 318° |
| 2026-05-07 10:35 | 47.90010 | 4.70563 | 25163 ft | 360 kts | 318° |
| 2026-05-07 10:35 | 47.91906 | 4.68142 | 24821 ft | 359 kts | 318° |
| 2026-05-07 10:35 | 47.93774 | 4.65759 | 24495 ft | 357 kts | 318° |
| 2026-05-07 10:36 | 47.95661 | 4.63355 | 24165 ft | 355 kts | 318° |
| 2026-05-07 10:36 | 47.97531 | 4.60965 | 23838 ft | 354 kts | 318° |
| 2026-05-07 10:36 | 47.99397 | 4.58571 | 23485 ft | 352 kts | 318° |
| 2026-05-07 10:36 | 48.01251 | 4.56187 | 23145 ft | 351 kts | 318° |
| 2026-05-07 10:37 | 48.03097 | 4.53813 | 22819 ft | 349 kts | 318° |
| 2026-05-07 10:37 | 48.04934 | 4.51452 | 22496 ft | 348 kts | 318° |
| 2026-05-07 10:37 | 48.06760 | 4.49104 | 22172 ft | 346 kts | 318° |
| 2026-05-07 10:37 | 48.08580 | 4.46762 | 21844 ft | 344 kts | 318° |
| 2026-05-07 10:38 | 48.10393 | 4.44423 | 21528 ft | 343 kts | 318° |
| 2026-05-07 10:38 | 48.12191 | 4.42097 | 21216 ft | 341 kts | 318° |
| 2026-05-07 10:38 | 48.13982 | 4.39781 | 20902 ft | 340 kts | 318° |
| 2026-05-07 10:38 | 48.15769 | 4.37469 | 20590 ft | 338 kts | 318° |
| 2026-05-07 10:39 | 48.17542 | 4.35173 | 20277 ft | 337 kts | 318° |
| 2026-05-07 10:39 | 48.19310 | 4.32884 | 19963 ft | 335 kts | 318° |
| 2026-05-07 10:39 | 48.21071 | 4.30603 | 19655 ft | 334 kts | 318° |
| 2026-05-07 10:39 | 48.22823 | 4.28332 | 19348 ft | 332 kts | 318° |
| 2026-05-07 10:40 | 48.24567 | 4.26074 | 19035 ft | 330 kts | 318° |
| 2026-05-07 10:40 | 48.26267 | 4.23775 | 18733 ft | 328 kts | 312° |
| 2026-05-07 10:40 | 48.27720 | 4.21209 | 18438 ft | 326 kts | 308° |
| 2026-05-07 10:40 | 48.29156 | 4.18591 | 18108 ft | 324 kts | 308° |
| 2026-05-07 10:41 | 48.30584 | 4.15982 | 17816 ft | 322 kts | 308° |
| 2026-05-07 10:41 | 48.32003 | 4.13384 | 17505 ft | 321 kts | 308° |
| 2026-05-07 10:41 | 48.33435 | 4.10764 | 17205 ft | 319 kts | 308° |
| 2026-05-07 10:41 | 48.34814 | 4.08213 | 16915 ft | 318 kts | 308° |
| 2026-05-07 10:42 | 48.36189 | 4.05616 | 16627 ft | 316 kts | 308° |
| 2026-05-07 10:42 | 48.37554 | 4.03030 | 16351 ft | 315 kts | 308° |
| 2026-05-07 10:42 | 48.38917 | 4.00446 | 16068 ft | 314 kts | 307° |
| 2026-05-07 10:42 | 48.40263 | 3.97857 | 15805 ft | 313 kts | 307° |
| 2026-05-07 10:43 | 48.41584 | 3.95262 | 15550 ft | 312 kts | 306° |
| 2026-05-07 10:43 | 48.42893 | 3.92670 | 15299 ft | 310 kts | 307° |
| 2026-05-07 10:43 | 48.44194 | 3.90085 | 15048 ft | 309 kts | 306° |
| 2026-05-07 10:43 | 48.45494 | 3.87503 | 14798 ft | 308 kts | 306° |
| 2026-05-07 10:44 | 48.46785 | 3.84940 | 14550 ft | 307 kts | 306° |
| 2026-05-07 10:44 | 48.48059 | 3.82415 | 14307 ft | 306 kts | 307° |
| 2026-05-07 10:44 | 48.49347 | 3.79858 | 14071 ft | 305 kts | 306° |
| 2026-05-07 10:44 | 48.50623 | 3.77317 | 13916 ft | 302 kts | 306° |
| 2026-05-07 10:45 | 48.51894 | 3.74785 | 14031 ft | 304 kts | 306° |
| 2026-05-07 10:45 | 48.53175 | 3.72236 | 14060 ft | 305 kts | 306° |
| 2026-05-07 10:45 | 48.54460 | 3.69682 | 14060 ft | 305 kts | 306° |
| 2026-05-07 10:45 | 48.55740 | 3.67131 | 14061 ft | 305 kts | 306° |
| 2026-05-07 10:46 | 48.57017 | 3.64578 | 14058 ft | 305 kts | 306° |
| 2026-05-07 10:46 | 48.58295 | 3.62026 | 14062 ft | 305 kts | 306° |
| 2026-05-07 10:46 | 48.59576 | 3.59472 | 14057 ft | 305 kts | 306° |
| 2026-05-07 10:46 | 48.60859 | 3.56912 | 14061 ft | 306 kts | 306° |
| 2026-05-07 10:47 | 48.62095 | 3.54302 | 14060 ft | 306 kts | 303° |
| 2026-05-07 10:47 | 48.63265 | 3.51622 | 14061 ft | 306 kts | 302° |
| 2026-05-07 10:47 | 48.64393 | 3.48943 | 14063 ft | 306 kts | 301° |
| 2026-05-07 10:47 | 48.65526 | 3.46223 | 14059 ft | 305 kts | 301° |
| 2026-05-07 10:48 | 48.66658 | 3.43507 | 14062 ft | 305 kts | 301° |
| 2026-05-07 10:48 | 48.67798 | 3.40797 | 14060 ft | 305 kts | 301° |
| 2026-05-07 10:48 | 48.68940 | 3.38095 | 14067 ft | 305 kts | 301° |
| 2026-05-07 10:48 | 48.70087 | 3.35389 | 14065 ft | 305 kts | 301° |
| 2026-05-07 10:49 | 48.71236 | 3.32684 | 14064 ft | 305 kts | 302° |
| 2026-05-07 10:49 | 48.72386 | 3.29984 | 14066 ft | 305 kts | 302° |
| 2026-05-07 10:49 | 48.73538 | 3.27277 | 14067 ft | 305 kts | 301° |
| 2026-05-07 10:49 | 48.74684 | 3.24575 | 14068 ft | 305 kts | 301° |
| 2026-05-07 10:50 | 48.75830 | 3.21868 | 14060 ft | 305 kts | 301° |
| 2026-05-07 10:50 | 48.76974 | 3.19157 | 14063 ft | 305 kts | 301° |
| 2026-05-07 10:50 | 48.78119 | 3.16444 | 14062 ft | 305 kts | 301° |
| 2026-05-07 10:50 | 48.79265 | 3.13732 | 14064 ft | 305 kts | 301° |
| 2026-05-07 10:51 | 48.80410 | 3.11018 | 14063 ft | 305 kts | 301° |
| 2026-05-07 10:51 | 48.81556 | 3.08297 | 14068 ft | 305 kts | 301° |
| 2026-05-07 10:51 | 48.82696 | 3.05588 | 14069 ft | 305 kts | 301° |
| 2026-05-07 10:51 | 48.83839 | 3.02874 | 14064 ft | 304 kts | 301° |
| 2026-05-07 10:52 | 48.85116 | 3.00304 | 14063 ft | 305 kts | 311° |
| 2026-05-07 10:52 | 48.86562 | 2.97933 | 14066 ft | 305 kts | 311° |
| 2026-05-07 10:52 | 48.88001 | 2.95560 | 14067 ft | 305 kts | 311° |
| 2026-05-07 10:52 | 48.89433 | 2.93182 | 14070 ft | 306 kts | 311° |
| 2026-05-07 10:53 | 48.90864 | 2.90792 | 14071 ft | 305 kts | 311° |
| 2026-05-07 10:53 | 48.92288 | 2.88415 | 14064 ft | 302 kts | 311° |
| 2026-05-07 10:53 | 48.93681 | 2.86093 | 14069 ft | 300 kts | 311° |
| 2026-05-07 10:53 | 48.95122 | 2.83743 | 14071 ft | 300 kts | 312° |
| 2026-05-07 10:54 | 48.96554 | 2.81481 | 14067 ft | 300 kts | 313° |
| 2026-05-07 10:54 | 48.98006 | 2.79211 | 14078 ft | 300 kts | 313° |
| 2026-05-07 10:54 | 48.99467 | 2.76929 | 13916 ft | 300 kts | 313° |
| 2026-05-07 10:54 | 49.00917 | 2.74656 | 13622 ft | 298 kts | 313° |
| 2026-05-07 10:55 | 49.02359 | 2.72382 | 13331 ft | 297 kts | 313° |
| 2026-05-07 10:55 | 49.03794 | 2.70116 | 13044 ft | 296 kts | 313° |
| 2026-05-07 10:55 | 49.05221 | 2.67860 | 12775 ft | 296 kts | 313° |
| 2026-05-07 10:55 | 49.06647 | 2.65604 | 12481 ft | 295 kts | 313° |
| 2026-05-07 10:56 | 49.08067 | 2.63352 | 12195 ft | 294 kts | 313° |
| 2026-05-07 10:56 | 49.09484 | 2.61105 | 11913 ft | 293 kts | 313° |
| 2026-05-07 10:56 | 49.10804 | 2.58740 | 11625 ft | 291 kts | 302° |
| 2026-05-07 10:56 | 49.11754 | 2.56020 | 11348 ft | 290 kts | 294° |
| 2026-05-07 10:57 | 49.12614 | 2.53244 | 11068 ft | 289 kts | 295° |
| 2026-05-07 10:57 | 49.13477 | 2.50473 | 10788 ft | 288 kts | 295° |
| 2026-05-07 10:57 | 49.14047 | 2.48642 | 10602 ft | 288 kts | 295° |
| 2026-05-07 10:57 | 49.15198 | 2.44956 | 10221 ft | 287 kts | 295° |
| 2026-05-07 10:58 | 49.15765 | 2.43137 | 10044 ft | 286 kts | 295° |
| 2026-05-07 10:58 | 49.16621 | 2.40397 | 9720 ft | 286 kts | 295° |
| 2026-05-07 10:58 | 49.17308 | 2.37568 | 9395 ft | 282 kts | 281° |
| 2026-05-07 10:58 | 49.17495 | 2.34607 | 9097 ft | 279 kts | 267° |
| 2026-05-07 10:59 | 49.17318 | 2.31657 | 8788 ft | 279 kts | 264° |
| 2026-05-07 10:59 | 49.17125 | 2.28719 | 8497 ft | 277 kts | 264° |
| 2026-05-07 10:59 | 49.16933 | 2.25797 | 8204 ft | 276 kts | 264° |
| 2026-05-07 10:59 | 49.16742 | 2.22887 | 7919 ft | 275 kts | 264° |
| 2026-05-07 11:00 | 49.16553 | 2.19986 | 7624 ft | 274 kts | 265° |
| 2026-05-07 11:00 | 49.16172 | 2.17137 | 7340 ft | 275 kts | 247° |
| 2026-05-07 11:00 | 49.15074 | 2.14776 | 7053 ft | 275 kts | 221° |
| 2026-05-07 11:00 | 49.13411 | 2.13333 | 6553 ft | 281 kts | 195° |
| 2026-05-07 11:01 | 49.11457 | 2.13217 | 6053 ft | 282 kts | 169° |
| 2026-05-07 11:01 | 49.09515 | 2.13913 | 5368 ft | 289 kts | 165° |
| 2026-05-07 11:01 | 49.07597 | 2.14675 | 5130 ft | 280 kts | 165° |
| 2026-05-07 11:01 | 49.05752 | 2.15421 | 4983 ft | 268 kts | 165° |
| 2026-05-07 11:02 | 49.04075 | 2.16375 | 4885 ft | 255 kts | 150° |
| 2026-05-07 11:02 | 49.02693 | 2.17948 | 4742 ft | 243 kts | 133° |
| 2026-05-07 11:02 | 49.01695 | 2.19949 | 4550 ft | 235 kts | 117° |
| 2026-05-07 11:02 | 49.01100 | 2.22238 | 4302 ft | 230 kts | 102° |
| 2026-05-07 11:03 | 49.00937 | 2.24634 | 4039 ft | 227 kts | 86° |
| 2026-05-07 11:03 | 49.01063 | 2.27029 | 3739 ft | 226 kts | 83° |
| 2026-05-07 11:03 | 49.01198 | 2.29407 | 3451 ft | 225 kts | 84° |
| 2026-05-07 11:03 | 49.01331 | 2.31774 | 3135 ft | 224 kts | 84° |
| 2026-05-07 11:04 | 49.01463 | 2.34126 | 2826 ft | 222 kts | 84° |
| 2026-05-07 11:04 | 49.01593 | 2.36465 | 2524 ft | 221 kts | 84° |
| 2026-05-07 11:04 | 49.01722 | 2.38791 | 2222 ft | 220 kts | 84° |
| 2026-05-07 11:04 | 49.01848 | 2.41081 | 1926 ft | 212 kts | 85° |
| 2026-05-07 11:05 | 49.01966 | 2.43240 | 1667 ft | 198 kts | 84° |
| 2026-05-07 11:05 | 49.02077 | 2.45248 | 1395 ft | 178 kts | 84° |
| 2026-05-07 11:05 | 49.02173 | 2.47025 | 1135 ft | 160 kts | 84° |
| 2026-05-07 11:05 | 49.02261 | 2.48642 | 929 ft | 148 kts | 83° |
| 2026-05-07 11:06 | 49.02345 | 2.50179 | 730 ft | 144 kts | 84° |
| 2026-05-07 11:06 | 49.02427 | 2.51690 | 501 ft | 143 kts | 84° |
| 2026-05-07 11:06 | 49.02502 | 2.53130 | 359 ft | 126 kts | 85° |
| 2026-05-07 11:06 | 49.02562 | 2.54071 | 354 ft | 61 kts | 84° |
| 2026-05-07 11:07 | 49.02540 | 2.54605 | 356 ft | 44 kts | 105° |
| 2026-05-07 11:07 | 49.02488 | 2.54892 | 358 ft | 25 kts | 105° |
| 2026-05-07 11:07 | 49.02449 | 2.55109 | 360 ft | 21 kts | 102° |
| 2026-05-07 11:07 | 49.02454 | 2.55333 | 358 ft | 22 kts | 85° |
| 2026-05-07 11:08 | 49.02461 | 2.55534 | 360 ft | 18 kts | 100° |
| 2026-05-07 11:08 | 49.02365 | 2.55621 | 354 ft | 17 kts | 173° |
| 2026-05-07 11:08 | 49.02248 | 2.55633 | 354 ft | 17 kts | 176° |
| 2026-05-07 11:08 | 49.02132 | 2.55647 | 354 ft | 17 kts | 175° |
| 2026-05-07 11:09 | 49.02012 | 2.55662 | 354 ft | 17 kts | 175° |
| 2026-05-07 11:09 | 49.01900 | 2.55638 | 362 ft | 16 kts | 227° |
| 2026-05-07 11:09 | 49.01882 | 2.55472 | 356 ft | 16 kts | 265° |
| 2026-05-07 11:09 | 49.01871 | 2.55293 | 356 ft | 18 kts | 265° |
| 2026-05-07 11:10 | 49.01860 | 2.55102 | 357 ft | 19 kts | 265° |
| 2026-05-07 11:10 | 49.01851 | 2.54888 | 354 ft | 21 kts | 268° |
| 2026-05-07 11:10 | 49.01839 | 2.54664 | 354 ft | 22 kts | 263° |
| 2026-05-07 11:10 | 49.01826 | 2.54419 | 356 ft | 23 kts | 266° |
| 2026-05-07 11:11 | 49.01791 | 2.54341 | 357 ft | 5 kts | 123° |
| 2026-05-07 11:11 | 49.01785 | 2.54390 | 355 ft | 4 kts | 102° |
| 2026-05-07 11:11 | 49.01777 | 2.54426 | 354 ft | 3 kts | 114° |
| 2026-05-07 11:11 | 49.01746 | 2.54503 | 359 ft | 12 kts | 123° |
| 2026-05-07 11:12 | 49.01698 | 2.54592 | 354 ft | 10 kts | 134° |
| 2026-05-07 11:12 | 49.01665 | 2.54592 | 354 ft | 4 kts | 221° |
| 2026-05-07 11:12 | 49.01649 | 2.54565 | 354 ft | 3 kts | 239° |
| 2026-05-07 11:12 | 49.01641 | 2.54543 | 354 ft | 2 kts | 238° |
| 2026-05-07 11:13 | 49.01634 | 2.54531 | 360 ft | 1 kts | 233° |
| 2026-05-07 11:13 | 49.01632 | 2.54526 | 359 ft | 1 kts | 233° |
| 2026-05-07 11:13 | 49.01629 | 2.54520 | 359 ft | 0 kts | 234° |
| 2026-05-07 11:16 | 49.01676 | 2.54441 | 359 ft | 0 kts | 216° |